createdAt,value
2023-01-07T00:01:40.611Z,102015.28
2023-01-07T00:04:15.711Z,102009.80
2023-01-07T00:06:45.301Z,102002.83
2023-01-07T00:09:15.592Z,102000.85
2023-01-07T00:11:45.160Z,102002.51
2023-01-07T00:14:14.979Z,101997.66
2023-01-07T00:16:43.954Z,101996.70
2023-01-07T00:19:15.018Z,101998.86
2023-01-07T00:21:44.286Z,101995.31
2023-01-07T00:24:13.074Z,101992.08
2023-01-07T00:26:41.749Z,101991.36
2023-01-07T00:29:10.316Z,101987.35
2023-01-07T00:31:41.010Z,101988.40
2023-01-07T00:34:09.856Z,101990.61
2023-01-07T00:36:41.827Z,101989.76
2023-01-07T00:39:18.904Z,101988.70
2023-01-07T00:41:48.494Z,101984.73
2023-01-07T00:44:16.868Z,101982.23
2023-01-07T00:46:45.125Z,101973.52
2023-01-07T00:49:13.999Z,101973.56
2023-01-07T00:51:42.446Z,101968.48
2023-01-07T00:54:11.020Z,101969.56
2023-01-07T00:56:39.302Z,101969.81
2023-01-07T00:59:07.455Z,101967.48
2023-01-07T01:01:35.711Z,101969.05
2023-01-07T01:04:04.484Z,101964.04
2023-01-07T01:06:32.672Z,101965.25
2023-01-07T01:09:00.817Z,101966.13
2023-01-07T01:11:29.065Z,101962.25
2023-01-07T01:13:57.197Z,101958.35
2023-01-07T01:16:25.475Z,101956.48
2023-01-07T01:18:54.044Z,101950.98
2023-01-07T01:21:22.196Z,101949.07
2023-01-07T01:23:50.587Z,101950.88
2023-01-07T01:26:18.788Z,101952.33
2023-01-07T01:28:47.984Z,101946.92
2023-01-07T01:31:16.213Z,101951.30
2023-01-07T01:33:44.605Z,101951.36
2023-01-07T01:36:13.311Z,101952.33
2023-01-07T01:38:42.049Z,101949.94
2023-01-07T01:41:10.620Z,101947.85
2023-01-07T01:43:41.379Z,101947.96
2023-01-07T01:46:28.841Z,101951.08
2023-01-07T01:49:06.111Z,101949.23
2023-01-07T01:51:39.212Z,101945.25
2023-01-07T01:54:11.711Z,101940.44
2023-01-07T01:56:44.934Z,101938.45
2023-01-07T01:59:19.109Z,101940.46
2023-01-07T02:01:47.908Z,101938.17
2023-01-07T02:04:21.066Z,101934.70
2023-01-07T02:07:12.069Z,101934.55
2023-01-07T02:09:40.184Z,101933.80
2023-01-07T02:12:50.153Z,101939.17
2023-01-07T02:15:40.737Z,101940.08
2023-01-07T02:18:37.486Z,101937.02
2023-01-07T02:21:36.469Z,101933.47
2023-01-07T02:24:26.586Z,101926.56
2023-01-07T02:27:09.933Z,101925.19
2023-01-07T02:30:10.298Z,101925.19
2023-01-07T02:32:41.446Z,101930.03
2023-01-07T02:35:12.318Z,101933.52
2023-01-07T02:37:59.421Z,101932.05
2023-01-07T02:40:34.533Z,101932.69
2023-01-07T02:43:26.429Z,101926.38
2023-01-07T02:46:13.558Z,101926.77
2023-01-07T02:48:42.351Z,101924.83
2023-01-07T02:51:10.571Z,101926.63
2023-01-07T02:53:40.983Z,101929.85
2023-01-07T02:56:38.269Z,101928.95
2023-01-07T02:59:06.494Z,101923.22
2023-01-07T03:02:04.873Z,101918.52
2023-01-07T03:05:14.786Z,101918.55
2023-01-07T03:08:22.471Z,101915.15
2023-01-07T03:11:04.654Z,101911.93
2023-01-07T03:13:42.754Z,101913.15
2023-01-07T03:16:18.649Z,101909.91
2023-01-07T03:18:54.134Z,101903.80
2023-01-07T03:21:24.868Z,101905.02
2023-01-07T03:23:57.001Z,101904.52
2023-01-07T03:26:31.079Z,101905.06
2023-01-07T03:29:01.995Z,101905.74
2023-01-07T03:31:31.440Z,101903.23
2023-01-07T03:34:02.592Z,101899.10
2023-01-07T03:36:37.685Z,101895.86
2023-01-07T03:39:08.771Z,101893.36
2023-01-07T03:41:39.339Z,101898.68
2023-01-07T03:44:07.425Z,101897.64
2023-01-07T03:46:37.498Z,101896.33
2023-01-07T03:49:05.743Z,101894.99
2023-01-07T03:51:33.952Z,101890.94
2023-01-07T03:54:02.139Z,101891.30
2023-01-07T03:56:31.003Z,101892.14
2023-01-07T03:58:59.444Z,101894.23
2023-01-07T04:01:28.028Z,101891.61
2023-01-07T04:03:56.777Z,101888.96
2023-01-07T04:06:25.029Z,101886.39
2023-01-07T04:08:53.264Z,101890.00
2023-01-07T04:11:21.725Z,101890.82
2023-01-07T04:13:49.881Z,101886.52
2023-01-07T04:16:18.159Z,101885.66
2023-01-07T04:18:46.514Z,101882.80
2023-01-07T04:21:14.792Z,101881.33
2023-01-07T04:23:43.617Z,101879.23
2023-01-07T04:26:12.339Z,101880.66
2023-01-07T04:28:40.540Z,101884.92
2023-01-07T04:31:08.966Z,101886.50
2023-01-07T04:33:37.519Z,101883.73
2023-01-07T04:36:05.967Z,101879.39
2023-01-07T04:38:34.324Z,101877.93
2023-01-07T04:41:02.720Z,101875.59
2023-01-07T04:43:30.972Z,101875.27
2023-01-07T04:45:59.245Z,101878.25
2023-01-07T04:48:27.417Z,101882.57
2023-01-07T04:50:55.583Z,101883.13
2023-01-07T04:53:23.825Z,101881.09
2023-01-07T04:55:53.878Z,101877.95
2023-01-07T04:58:22.098Z,101877.27
2023-01-07T05:00:50.293Z,101877.96
2023-01-07T05:03:19.025Z,101880.90
2023-01-07T05:05:47.195Z,101879.20
2023-01-07T05:08:15.620Z,101877.30
2023-01-07T05:10:43.848Z,101878.64
2023-01-07T05:13:17.021Z,101879.66
2023-01-07T05:15:45.446Z,101877.34
2023-01-07T05:18:13.788Z,101881.17
2023-01-07T05:20:42.116Z,101881.88
2023-01-07T05:23:10.559Z,101880.77
2023-01-07T05:25:38.716Z,101878.48
2023-01-07T05:28:06.876Z,101878.64
2023-01-07T05:30:35.300Z,101881.62
2023-01-07T05:33:03.438Z,101882.44
2023-01-07T05:35:31.643Z,101883.85
2023-01-07T05:37:59.766Z,101884.21
2023-01-07T05:40:28.370Z,101887.21
2023-01-07T05:42:56.854Z,101888.12
2023-01-07T05:45:25.001Z,101889.89
2023-01-07T05:47:53.364Z,101890.58
2023-01-07T05:50:21.518Z,101894.14
2023-01-07T05:52:51.598Z,101894.51
2023-01-07T05:55:20.630Z,101896.75
2023-01-07T05:57:48.768Z,101899.88
2023-01-07T06:00:17.381Z,101903.67
2023-01-07T06:02:45.520Z,101899.16
2023-01-07T06:05:13.729Z,101898.96
2023-01-07T06:07:42.536Z,101896.55
2023-01-07T06:10:10.894Z,101896.29
2023-01-07T06:12:39.236Z,101896.11
2023-01-07T06:15:08.195Z,101900.55
2023-01-07T06:17:36.387Z,101898.81
2023-01-07T06:20:06.286Z,101903.62
2023-01-07T06:22:37.349Z,101905.81
2023-01-07T06:25:05.751Z,101907.28
2023-01-07T06:27:34.078Z,101910.43
2023-01-07T06:30:03.125Z,101913.11
2023-01-07T06:32:31.378Z,101914.17
2023-01-07T06:34:59.552Z,101916.27
2023-01-07T06:37:28.840Z,101917.31
2023-01-07T06:39:56.990Z,101919.85
2023-01-07T06:42:25.294Z,101917.06
2023-01-07T06:44:53.526Z,101917.23
2023-01-07T06:47:21.752Z,101920.44
2023-01-07T06:49:50.290Z,101919.16
2023-01-07T06:52:18.677Z,101919.98
2023-01-07T06:54:48.501Z,101920.02
2023-01-07T06:57:17.067Z,101924.45
2023-01-07T06:59:45.257Z,101925.99
2023-01-07T07:02:22.889Z,101933.98
2023-01-07T07:04:51.204Z,101932.62
2023-01-07T07:07:20.077Z,101933.70
2023-01-07T07:09:49.750Z,101934.04
2023-01-07T07:12:18.087Z,101938.47
2023-01-07T07:14:46.968Z,101934.05
2023-01-07T07:17:15.385Z,101934.58
2023-01-07T07:19:43.633Z,101940.73
2023-01-07T07:22:11.712Z,101942.27
2023-01-07T07:24:40.191Z,101945.29
2023-01-07T07:27:08.663Z,101942.34
2023-01-07T07:29:36.841Z,101943.49
2023-01-07T07:32:05.468Z,101944.89
2023-01-07T07:34:35.734Z,101945.82
2023-01-07T07:37:04.267Z,101949.25
2023-01-07T07:39:32.647Z,101945.00
2023-01-07T07:42:05.133Z,101946.63
2023-01-07T07:44:33.351Z,101948.27
2023-01-07T07:47:01.676Z,101945.73
2023-01-07T07:49:30.515Z,101946.85
2023-01-07T07:51:58.732Z,101939.55
2023-01-07T07:54:27.020Z,101943.13
2023-01-07T07:56:55.394Z,101944.63
2023-01-07T07:59:23.959Z,101937.01
2023-01-07T08:01:52.185Z,101933.66
2023-01-07T08:04:20.324Z,101930.92
2023-01-07T08:06:48.774Z,101938.51
2023-01-07T08:09:16.830Z,101944.40
2023-01-07T08:11:45.019Z,101944.02
2023-01-07T08:14:13.200Z,101944.63
2023-01-07T08:16:41.421Z,101946.36
2023-01-07T08:19:10.960Z,101942.86
2023-01-07T08:21:39.581Z,101944.70
2023-01-07T08:24:08.115Z,101947.35
2023-01-07T08:26:36.466Z,101948.02
2023-01-07T08:29:04.896Z,101949.58
2023-01-07T08:31:33.149Z,101953.30
2023-01-07T08:34:01.505Z,101954.33
2023-01-07T08:36:29.661Z,101959.34
2023-01-07T08:38:57.983Z,101965.05
2023-01-07T08:41:26.191Z,101961.73
2023-01-07T08:43:54.301Z,101962.63
2023-01-07T08:46:22.617Z,101964.99
2023-01-07T08:48:50.794Z,101971.33
2023-01-07T08:51:19.148Z,101972.65
2023-01-07T08:53:47.458Z,101975.95
2023-01-07T08:56:18.685Z,101973.95
2023-01-07T08:58:47.294Z,101972.92
2023-01-07T09:01:15.680Z,101980.98
2023-01-07T09:03:43.847Z,101980.44
2023-01-07T09:06:12.116Z,101984.24
2023-01-07T09:08:40.356Z,101986.77
2023-01-07T09:11:08.582Z,101988.29
2023-01-07T09:13:36.864Z,101983.45
2023-01-07T09:16:05.625Z,101989.82
2023-01-07T09:18:33.947Z,101990.42
2023-01-07T09:21:02.470Z,101993.45
2023-01-07T09:23:30.816Z,101991.46
2023-01-07T09:25:58.985Z,101996.46
2023-01-07T09:28:27.957Z,102000.27
2023-01-07T09:30:56.965Z,102004.86
2023-01-07T09:33:25.298Z,102010.38
2023-01-07T09:35:53.546Z,102012.58
2023-01-07T09:38:21.770Z,102022.95
2023-01-07T09:40:50.871Z,102021.85
2023-01-07T09:43:59.732Z,102021.36
2023-01-07T09:46:18.387Z,102021.15
2023-01-07T09:48:51.654Z,102020.41
2023-01-07T09:51:33.948Z,102020.33
2023-01-07T09:54:05.199Z,102022.84
2023-01-07T09:56:35.633Z,102025.39
2023-01-07T09:59:06.499Z,102023.92
2023-01-07T10:02:06.193Z,102026.34
2023-01-07T10:04:42.888Z,102028.05
2023-01-07T10:07:39.542Z,102025.66
2023-01-07T10:10:59.707Z,102019.16
2023-01-07T10:14:11.737Z,102018.91
2023-01-07T10:17:09.216Z,102012.56
2023-01-07T10:19:50.690Z,102008.77
2023-01-07T10:22:32.013Z,102004.72
2023-01-07T10:25:06.837Z,102004.44
2023-01-07T10:27:39.979Z,102003.31
2023-01-07T10:30:18.221Z,102002.65
2023-01-07T10:32:49.125Z,101998.62
2023-01-07T10:35:17.913Z,101999.99
2023-01-07T10:37:46.368Z,101996.30
2023-01-07T10:40:25.507Z,101994.02
2023-01-07T10:43:23.040Z,101989.61
2023-01-07T10:46:11.238Z,101987.30
2023-01-07T10:48:47.651Z,101981.23
2023-01-07T10:51:21.615Z,101971.98
2023-01-07T10:54:14.575Z,101970.84
2023-01-07T10:56:48.211Z,101965.55
2023-01-07T10:59:20.023Z,101961.68
2023-01-07T11:01:56.262Z,101959.13
2023-01-07T11:04:26.486Z,101962.80
2023-01-07T11:07:15.305Z,101959.54
2023-01-07T11:09:47.438Z,101955.14
2023-01-07T11:12:40.370Z,101955.13
2023-01-07T11:15:41.030Z,101947.33
2023-01-07T11:18:35.143Z,101937.10
2023-01-07T11:21:03.453Z,101932.77
2023-01-07T11:23:33.329Z,101927.25
2023-01-07T11:26:37.334Z,101923.25
2023-01-07T11:29:25.820Z,101914.02
2023-01-07T11:31:59.748Z,101910.95
2023-01-07T11:34:38.120Z,101900.52
2023-01-07T11:37:06.695Z,101898.01
2023-01-07T11:39:36.206Z,101893.67
2023-01-07T11:42:25.580Z,101891.15
2023-01-07T11:45:14.235Z,101882.31
2023-01-07T11:47:49.158Z,101876.43
2023-01-07T11:50:33.734Z,101867.66
2023-01-07T11:53:15.280Z,101863.33
2023-01-07T11:56:11.210Z,101858.29
2023-01-07T11:58:43.632Z,101848.10
2023-01-07T12:01:16.488Z,101846.36
2023-01-07T12:04:20.718Z,101843.86
2023-01-07T12:06:53.558Z,101837.23
2023-01-07T12:09:34.032Z,101832.77
2023-01-07T12:12:31.640Z,101826.91
2023-01-07T12:15:04.962Z,101821.23
2023-01-07T12:17:35.325Z,101814.26
2023-01-07T12:20:32.358Z,101807.61
2023-01-07T12:23:06.547Z,101804.16
2023-01-07T12:25:40.621Z,101800.77
2023-01-07T12:28:19.721Z,101797.63
2023-01-07T12:31:27.029Z,101793.02
2023-01-07T12:34:18.455Z,101791.54
2023-01-07T12:36:56.901Z,101795.37
2023-01-07T12:39:35.441Z,101799.89
2023-01-07T12:42:19.019Z,101792.11
2023-01-07T12:44:51.720Z,101791.73
2023-01-07T12:47:36.695Z,101789.42
2023-01-07T12:50:16.881Z,101784.30
2023-01-07T12:53:04.019Z,101782.13
2023-01-07T12:55:37.112Z,101780.06
2023-01-07T12:58:23.627Z,101773.45
2023-01-07T13:01:26.603Z,101770.73
2023-01-07T13:04:04.331Z,101776.38
2023-01-07T13:06:43.245Z,101775.77
2023-01-07T13:09:18.570Z,101773.67
2023-01-07T13:11:55.312Z,101767.30
2023-01-07T13:14:37.374Z,101765.41
2023-01-07T13:17:16.929Z,101763.07
2023-01-07T13:19:51.209Z,101755.65
2023-01-07T13:22:38.084Z,101757.20
2023-01-07T13:25:50.367Z,101752.58
2023-01-07T13:28:29.831Z,101743.54
2023-01-07T13:32:02.118Z,101734.83
2023-01-07T13:34:46.479Z,101729.73
2023-01-07T13:37:48.761Z,101723.60
2023-01-07T13:40:30.291Z,101718.41
2023-01-07T13:43:18.444Z,101713.16
2023-01-07T13:45:57.066Z,101701.09
2023-01-07T13:48:28.948Z,101700.83
2023-01-07T13:51:01.702Z,101703.56
2023-01-07T13:53:46.549Z,101698.79
2023-01-07T13:56:18.604Z,101700.95
2023-01-07T13:58:48.256Z,101698.39
2023-01-07T14:01:21.387Z,101693.21
2023-01-07T14:03:57.464Z,101687.71
2023-01-07T14:06:41.461Z,101690.02
2023-01-07T14:09:09.647Z,101687.53
2023-01-07T14:11:37.865Z,101689.61
2023-01-07T14:14:21.287Z,101689.35
2023-01-07T14:17:01.358Z,101691.09
2023-01-07T14:19:51.317Z,101687.76
2023-01-07T14:22:30.485Z,101688.52
2023-01-07T14:25:30.811Z,101684.12
2023-01-07T14:28:21.486Z,101682.23
2023-01-07T14:30:52.671Z,101684.67
2023-01-07T14:33:25.187Z,101687.20
2023-01-07T14:35:53.418Z,101686.20
2023-01-07T14:38:30.663Z,101686.66
2023-01-07T14:41:13.971Z,101690.14
2023-01-07T14:43:42.066Z,101686.52
2023-01-07T14:46:23.070Z,101685.46
2023-01-07T14:49:00.675Z,101684.10
2023-01-07T14:52:10.628Z,101679.73
2023-01-07T14:55:04.260Z,101673.35
2023-01-07T14:57:39.483Z,101681.03
2023-01-07T15:00:35.536Z,101682.16
2023-01-07T15:03:17.591Z,101679.41
2023-01-07T15:06:08.226Z,101683.08
2023-01-07T15:08:42.635Z,101677.85
2023-01-07T15:11:20.280Z,101679.07
2023-01-07T15:14:04.541Z,101679.48
2023-01-07T15:16:35.660Z,101681.27
2023-01-07T15:19:04.245Z,101681.25
2023-01-07T15:21:54.034Z,101677.84
2023-01-07T15:24:43.221Z,101676.15
2023-01-07T15:27:48.275Z,101681.30
2023-01-07T15:30:38.200Z,101686.89
2023-01-07T15:33:26.254Z,101683.30
2023-01-07T15:35:56.576Z,101686.15
2023-01-07T15:38:27.817Z,101687.65
2023-01-07T15:40:58.547Z,101680.27
2023-01-07T15:43:30.112Z,101687.72
2023-01-07T15:46:03.076Z,101693.25
2023-01-07T15:48:31.875Z,101695.16
2023-01-07T15:51:00.305Z,101688.65
2023-01-07T15:53:29.714Z,101688.25
2023-01-07T15:56:11.474Z,101691.96
2023-01-07T15:58:48.763Z,101697.39
2023-01-07T16:01:20.578Z,101694.10
2023-01-07T16:03:51.636Z,101694.05
2023-01-07T16:06:31.408Z,101699.34
2023-01-07T16:09:03.460Z,101699.64
2023-01-07T16:11:32.531Z,101696.65
2023-01-07T16:14:03.161Z,101699.33
2023-01-07T16:16:32.484Z,101698.67
2023-01-07T16:19:03.092Z,101698.14
2023-01-07T16:21:38.091Z,101699.94
2023-01-07T16:24:07.389Z,101702.64
2023-01-07T16:26:49.704Z,101708.33
2023-01-07T16:29:25.529Z,101710.77
2023-01-07T16:31:54.902Z,101713.68
2023-01-07T16:34:26.230Z,101716.36
2023-01-07T16:37:05.373Z,101714.66
2023-01-07T16:39:38.697Z,101716.36
2023-01-07T16:42:07.558Z,101718.87
2023-01-07T16:44:44.802Z,101724.64
2023-01-07T16:47:21.802Z,101721.16
2023-01-07T16:49:58.758Z,101720.91
2023-01-07T16:52:33.337Z,101721.79
2023-01-07T16:55:01.651Z,101722.38
2023-01-07T16:57:40.378Z,101713.67
2023-01-07T17:00:19.473Z,101714.89
2023-01-07T17:02:57.613Z,101714.95
2023-01-07T17:05:30.092Z,101715.25
2023-01-07T17:08:02.446Z,101714.92
2023-01-07T17:10:35.373Z,101711.52
2023-01-07T17:13:07.758Z,101715.45
2023-01-07T17:15:38.670Z,101722.44
2023-01-07T17:18:15.722Z,101724.02
2023-01-07T17:21:00.386Z,101725.58
2023-01-07T17:23:28.725Z,101724.81
2023-01-07T17:26:11.731Z,101724.20
2023-01-07T17:28:55.121Z,101725.48
2023-01-07T17:31:23.970Z,101716.53
2023-01-07T17:33:53.250Z,101716.05
2023-01-07T17:36:26.749Z,101719.86
2023-01-07T17:38:54.907Z,101723.48
2023-01-07T17:41:24.054Z,101723.88
2023-01-07T17:43:52.427Z,101720.41
2023-01-07T17:46:20.827Z,101721.64
2023-01-07T17:48:49.035Z,101711.18
2023-01-07T17:51:17.699Z,101719.85
2023-01-07T17:53:49.119Z,101719.19
2023-01-07T17:56:17.550Z,101722.10
2023-01-07T17:58:46.546Z,101718.41
2023-01-07T18:01:24.445Z,101720.29
2023-01-07T18:03:53.468Z,101723.13
2023-01-07T18:06:25.941Z,101724.02
2023-01-07T18:08:54.090Z,101726.23
2023-01-07T18:11:26.589Z,101728.73
2023-01-07T18:13:54.752Z,101732.38
2023-01-07T18:16:23.045Z,101738.77
2023-01-07T18:18:51.251Z,101744.30
2023-01-07T18:21:19.591Z,101743.46
2023-01-07T18:23:47.695Z,101746.95
2023-01-07T18:26:17.154Z,101743.48
2023-01-07T18:28:46.786Z,101745.60
2023-01-07T18:31:15.767Z,101749.67
2023-01-07T18:33:44.143Z,101749.76
2023-01-07T18:36:12.317Z,101754.27
2023-01-07T18:38:40.665Z,101761.70
2023-01-07T18:41:09.237Z,101764.75
2023-01-07T18:43:37.366Z,101760.14
2023-01-07T18:46:11.057Z,101756.44
2023-01-07T18:48:39.302Z,101759.46
2023-01-07T18:51:11.589Z,101763.30
2023-01-07T18:53:39.837Z,101770.17
2023-01-07T18:56:08.194Z,101773.91
2023-01-07T18:58:36.609Z,101772.80
2023-01-07T19:01:07.032Z,101775.16
2023-01-07T19:03:35.828Z,101779.43
2023-01-07T19:06:11.536Z,101779.80
2023-01-07T19:08:39.642Z,101783.73
2023-01-07T19:11:09.306Z,101785.96
2023-01-07T19:13:37.820Z,101791.05
2023-01-07T19:16:12.078Z,101789.85
2023-01-07T19:18:40.577Z,101788.33
2023-01-07T19:21:11.807Z,101787.61
2023-01-07T19:23:40.145Z,101788.46
2023-01-07T19:26:11.175Z,101782.20
2023-01-07T19:28:39.452Z,101778.19
2023-01-07T19:31:08.803Z,101774.37
2023-01-07T19:33:37.955Z,101777.46
2023-01-07T19:36:09.548Z,101778.76
2023-01-07T19:38:42.664Z,101779.69
2023-01-07T19:41:13.334Z,101779.33
2023-01-07T19:43:41.507Z,101775.96
2023-01-07T19:46:11.694Z,101780.64
2023-01-07T19:48:40.876Z,101778.38
2023-01-07T19:51:09.109Z,101775.40
2023-01-07T19:53:37.459Z,101773.81
2023-01-07T19:56:08.796Z,101768.78
2023-01-07T19:58:40.120Z,101768.42
2023-01-07T20:01:13.026Z,101770.50
2023-01-07T20:03:42.864Z,101771.60
2023-01-07T20:06:14.370Z,101769.79
2023-01-07T20:08:43.686Z,101770.26
2023-01-07T20:11:12.514Z,101771.81
2023-01-07T20:13:41.403Z,101770.64
2023-01-07T20:16:13.801Z,101778.94
2023-01-07T20:18:43.952Z,101775.89
2023-01-07T20:21:16.289Z,101777.50
2023-01-07T20:23:46.065Z,101780.50
2023-01-07T20:26:20.449Z,101782.48
2023-01-07T20:28:49.816Z,101783.66
2023-01-07T20:31:21.592Z,101790.13
2023-01-07T20:33:50.752Z,101791.00
2023-01-07T20:36:25.183Z,101790.92
2023-01-07T20:38:53.824Z,101790.55
2023-01-07T20:41:25.219Z,101791.33
2023-01-07T20:44:02.009Z,101795.14
2023-01-07T20:46:31.391Z,101793.69
2023-01-07T20:48:59.584Z,101790.10
2023-01-07T20:51:28.265Z,101790.60
2023-01-07T20:53:57.463Z,101786.61
2023-01-07T20:56:25.864Z,101787.20
2023-01-07T20:58:53.948Z,101780.42
2023-01-07T21:01:22.496Z,101778.02
2023-01-07T21:03:50.809Z,101778.64
2023-01-07T21:06:20.576Z,101780.31
2023-01-07T21:08:49.673Z,101784.73
2023-01-07T21:11:21.061Z,101787.57
2023-01-07T21:13:52.738Z,101796.70
2023-01-07T21:16:20.938Z,101800.00
2023-01-07T21:18:49.373Z,101802.97
2023-01-07T21:21:23.154Z,101804.58
2023-01-07T21:23:52.855Z,101803.64
2023-01-07T21:26:21.154Z,101800.36
2023-01-07T21:28:52.988Z,101796.67
2023-01-07T21:31:21.843Z,101799.05
2023-01-07T21:33:54.435Z,101789.04
2023-01-07T21:36:24.094Z,101790.90
2023-01-07T21:38:54.945Z,101796.25
2023-01-07T21:41:24.958Z,101793.09
2023-01-07T21:43:53.109Z,101793.27
2023-01-07T21:46:21.889Z,101790.79
2023-01-07T21:48:50.909Z,101789.99
2023-01-07T21:51:23.452Z,101785.18
2023-01-07T21:53:52.463Z,101786.52
2023-01-07T21:56:20.846Z,101784.37
2023-01-07T21:58:49.778Z,101783.90
2023-01-07T22:01:18.876Z,101788.17
2023-01-07T22:03:48.941Z,101789.77
2023-01-07T22:06:23.014Z,101788.71
2023-01-07T22:08:56.290Z,101787.39
2023-01-07T22:11:25.863Z,101786.50
2023-01-07T22:13:56.941Z,101785.07
2023-01-07T22:16:30.609Z,101781.24
2023-01-07T22:18:59.361Z,101780.98
2023-01-07T22:21:27.638Z,101785.91
2023-01-07T22:23:55.837Z,101784.71
2023-01-07T22:26:24.299Z,101780.02
2023-01-07T22:29:02.931Z,101774.40
2023-01-07T22:31:34.350Z,101771.48
2023-01-07T22:34:03.906Z,101773.36
2023-01-07T22:36:34.893Z,101784.00
2023-01-07T22:39:07.769Z,101789.86
2023-01-07T22:41:36.557Z,101794.65
2023-01-07T22:44:12.524Z,101795.83
2023-01-07T22:46:43.290Z,101794.73
2023-01-07T22:49:11.621Z,101795.71
2023-01-07T22:51:44.363Z,101791.98
2023-01-07T22:54:13.592Z,101788.11
2023-01-07T22:56:42.464Z,101778.54
2023-01-07T22:59:10.993Z,101771.68
2023-01-07T23:01:39.280Z,101776.59
2023-01-07T23:04:07.722Z,101781.99
2023-01-07T23:06:36.579Z,101784.74
2023-01-07T23:09:05.210Z,101777.77
2023-01-07T23:11:33.427Z,101774.88
2023-01-07T23:14:01.914Z,101774.70
2023-01-07T23:16:30.218Z,101771.48
2023-01-07T23:18:58.432Z,101766.70
2023-01-07T23:21:26.608Z,101769.63
2023-01-07T23:23:55.160Z,101767.55
2023-01-07T23:26:23.442Z,101771.01
2023-01-07T23:28:51.768Z,101769.52
2023-01-07T23:31:19.911Z,101764.27
2023-01-07T23:33:50.861Z,101758.96
2023-01-07T23:36:19.470Z,101751.58
2023-01-07T23:38:48.051Z,101743.47
2023-01-07T23:41:16.223Z,101733.70
2023-01-07T23:43:45.185Z,101718.61
2023-01-07T23:46:14.621Z,101714.56
2023-01-07T23:48:42.830Z,101714.23
2023-01-07T23:51:16.362Z,101714.34
2023-01-07T23:53:45.837Z,101707.42
2023-01-07T23:56:14.997Z,101705.05
2023-01-07T23:58:43.441Z,101707.72
